Time;durP1;ratioP1;P1;durP2;ratioP2;P2;SDS_P1;SDS_P2;PMS_P1;PMS_P2;Temp;Humidity;BMP_temperature;BMP_pressure;BME280_temperature;BME280_humidity;BME280_pressure;Samples;Min_cycle;Max_cycle;Signal;HPM_P1;HPM_P2
2022/03/15 00:01:50;;;;;;;4.25;1.40;;;5.80;99.90;;;;;;4964543;28;20581;-77
2022/03/15 00:04:15;;;;;;;3.17;1.85;;;5.80;99.90;;;;;;4973042;28;20085;-78
2022/03/15 00:06:41;;;;;;;5.10;2.25;;;5.70;99.90;;;;;;4960536;28;20059;-79
2022/03/15 00:09:07;;;;;;;3.13;1.20;;;5.70;99.90;;;;;;4958624;28;20034;-79
2022/03/15 00:11:34;;;;;;;2.83;1.42;;;5.80;99.90;;;;;;4965438;28;20030;-80
2022/03/15 00:14:03;;;;;;;4.32;1.25;;;5.80;99.90;;;;;;4963932;28;20031;-79
2022/03/15 00:16:28;;;;;;;7.10;2.63;;;5.70;99.90;;;;;;4958829;28;20019;-78
2022/03/15 00:18:54;;;;;;;2.90;1.50;;;5.70;99.90;;;;;;4954293;29;20407;-80
2022/03/15 00:21:20;;;;;;;5.47;1.30;;;5.70;99.90;;;;;;4952801;29;20031;-80
2022/03/15 00:23:46;;;;;;;7.97;1.95;;;5.70;99.90;;;;;;4971180;28;20535;-82
2022/03/15 00:26:11;;;;;;;5.38;1.50;;;5.70;99.90;;;;;;4962007;28;20348;-80
2022/03/15 00:28:37;;;;;;;4.20;1.50;;;5.70;99.90;;;;;;4952368;28;20027;-78
2022/03/15 00:31:04;;;;;;;5.00;1.40;;;5.70;99.90;;;;;;4950933;28;20048;-79
2022/03/15 00:33:30;;;;;;;5.32;1.80;;;5.70;99.90;;;;;;4950497;28;20027;-80
2022/03/15 00:35:56;;;;;;;3.30;1.55;;;5.70;99.90;;;;;;4950626;29;20061;-78
2022/03/15 00:38:22;;;;;;;3.20;1.42;;;5.70;99.90;;;;;;4953630;29;20035;-79
2022/03/15 00:40:48;;;;;;;4.78;1.50;;;5.80;99.90;;;;;;4954396;29;20031;-81
2022/03/15 00:43:14;;;;;;;3.10;1.48;;;5.80;99.90;;;;;;4953111;28;20160;-78
2022/03/15 00:45:40;;;;;;;2.95;1.33;;;6.40;99.90;;;;;;4952110;29;20038;-80
2022/03/15 00:48:06;;;;;;;3.88;1.90;;;5.90;99.90;;;;;;4951618;28;20038;-78
2022/03/15 00:50:33;;;;;;;7.05;1.60;;;5.90;99.90;;;;;;4949724;29;20035;-79
2022/03/15 00:53:00;;;;;;;2.60;1.75;;;6.00;99.90;;;;;;4953569;29;20034;-79
2022/03/15 00:55:25;;;;;;;5.40;1.77;;;6.00;99.90;;;;;;4948756;28;20065;-79
2022/03/15 00:57:51;;;;;;;5.03;1.25;;;6.00;99.90;;;;;;4949628;29;20055;-78
2022/03/15 01:00:18;;;;;;;1.88;1.00;;;6.00;99.90;;;;;;4958269;28;20057;-77
2022/03/15 01:02:44;;;;;;;5.38;1.73;;;6.10;99.90;;;;;;4967446;28;20022;-77
2022/03/15 01:05:10;;;;;;;1.88;1.27;;;6.10;99.90;;;;;;4969718;28;20102;-78
2022/03/15 01:07:35;;;;;;;4.60;1.50;;;6.00;99.90;;;;;;4969336;28;20163;-78
2022/03/15 01:10:01;;;;;;;1.25;1.15;;;6.00;99.90;;;;;;4969619;28;20635;-77
2022/03/15 01:12:27;;;;;;;6.65;1.50;;;6.00;99.90;;;;;;4969492;28;20030;-78
2022/03/15 01:14:52;;;;;;;6.15;1.10;;;6.10;99.90;;;;;;4968538;28;20530;-78
2022/03/15 01:17:18;;;;;;;5.13;1.67;;;6.20;99.90;;;;;;4969207;28;20101;-78
2022/03/15 01:19:44;;;;;;;3.95;1.95;;;6.30;99.90;;;;;;4969017;28;20075;-77
2022/03/15 01:22:10;;;;;;;1.80;1.13;;;6.30;99.90;;;;;;4983934;28;20031;-78
2022/03/15 01:24:36;;;;;;;4.65;1.58;;;6.30;99.90;;;;;;4968016;28;20031;-78
2022/03/15 01:27:02;;;;;;;4.28;1.55;;;6.30;99.90;;;;;;4969497;28;20027;-78
2022/03/15 01:29:28;;;;;;;4.88;1.38;;;6.30;99.90;;;;;;4967420;28;20525;-78
2022/03/15 01:31:54;;;;;;;8.38;1.40;;;6.40;99.90;;;;;;4968781;28;20403;-78
2022/03/15 01:34:20;;;;;;;3.40;1.83;;;6.40;99.90;;;;;;4971445;28;20047;-79
2022/03/15 01:36:46;;;;;;;3.13;1.73;;;6.40;99.90;;;;;;4975744;28;20025;-82
2022/03/15 01:39:12;;;;;;;4.00;1.20;;;6.30;99.90;;;;;;4980033;28;20037;-79
2022/03/15 01:41:39;;;;;;;3.13;1.50;;;6.30;99.90;;;;;;4971638;28;20027;-80
2022/03/15 01:44:17;;;;;;;5.30;2.33;;;6.40;99.90;;;;;;4972018;28;20029;-78
2022/03/15 01:46:44;;;;;;;4.45;1.77;;;6.40;99.90;;;;;;4969598;28;20015;-80
2022/03/15 01:49:10;;;;;;;4.63;1.17;;;6.40;99.90;;;;;;4968091;28;20271;-79
2022/03/15 01:51:40;;;;;;;5.95;1.58;;;6.40;99.90;;;;;;4984440;28;20703;-80
2022/03/15 01:54:06;;;;;;;;;;;6.40;99.90;;;;;;4968123;28;20570;-79
2022/03/15 01:56:32;;;;;;;1.58;1.20;;;6.50;99.90;;;;;;4984625;28;19910;-79
2022/03/15 01:59:00;;;;;;;7.55;1.85;;;6.50;99.90;;;;;;4967530;28;20066;-79
2022/03/15 02:01:28;;;;;;;4.88;1.30;;;6.50;99.90;;;;;;4972490;28;20038;-80
2022/03/15 02:03:54;;;;;;;1.70;1.20;;;6.50;99.90;;;;;;4991927;28;20038;-80
2022/03/15 02:06:19;;;;;;;3.28;1.90;;;6.50;99.90;;;;;;4975953;28;20022;-79
2022/03/15 02:08:45;;;;;;;6.63;1.20;;;6.30;99.90;;;;;;4968887;28;20037;-79
2022/03/15 02:11:12;;;;;;;8.13;1.75;;;6.30;99.90;;;;;;4983399;28;20613;-78
2022/03/15 02:13:38;;;;;;;3.05;1.77;;;6.40;99.90;;;;;;4986652;28;20022;-79
2022/03/15 02:16:06;;;;;;;5.68;1.30;;;6.40;99.90;;;;;;4969959;28;20047;-77
2022/03/15 02:18:31;;;;;;;3.03;1.58;;;6.40;99.90;;;;;;4969386;28;20019;-78
2022/03/15 02:20:57;;;;;;;3.33;1.00;;;6.40;99.90;;;;;;4984593;28;20023;-77
2022/03/15 02:23:23;;;;;;;5.13;1.30;;;6.40;99.90;;;;;;4985013;28;20019;-78
2022/03/15 02:25:48;;;;;;;6.50;1.35;;;6.40;99.90;;;;;;4970718;28;20109;-78
2022/03/15 02:28:14;;;;;;;5.72;1.20;;;6.30;99.90;;;;;;4970276;28;20042;-78
2022/03/15 02:30:43;;;;;;;4.10;1.30;;;6.30;99.90;;;;;;4968814;28;20146;-78
2022/03/15 02:33:09;;;;;;;3.38;1.38;;;6.30;99.90;;;;;;4970715;28;20031;-78
2022/03/15 02:35:36;;;;;;;1.45;1.35;;;6.30;99.90;;;;;;4970722;28;20062;-78
2022/03/15 02:38:02;;;;;;;3.95;1.10;;;6.20;99.90;;;;;;4970801;28;20039;-78
2022/03/15 02:40:27;;;;;;;6.38;1.58;;;6.20;99.90;;;;;;4985371;28;20031;-78
2022/03/15 02:42:53;;;;;;;3.20;2.20;;;6.20;99.90;;;;;;4970474;28;20048;-78
2022/03/15 02:45:19;;;;;;;5.97;1.23;;;6.20;99.90;;;;;;4969128;28;20122;-78
2022/03/15 02:47:46;;;;;;;3.25;1.20;;;6.20;99.90;;;;;;4970201;28;20114;-78
2022/03/15 02:50:12;;;;;;;3.72;1.80;;;6.20;99.90;;;;;;4985415;28;20573;-78
2022/03/15 02:52:38;;;;;;;3.15;1.45;;;6.10;99.90;;;;;;4970415;28;20050;-78
2022/03/15 02:55:04;;;;;;;3.85;1.77;;;6.10;99.90;;;;;;4985569;28;20029;-78
2022/03/15 02:57:30;;;;;;;3.13;1.17;;;6.10;99.90;;;;;;4970887;28;20106;-78
2022/03/15 02:59:56;;;;;;;4.10;1.50;;;6.00;99.90;;;;;;4968846;28;20117;-78
2022/03/15 03:02:22;;;;;;;3.38;1.30;;;6.00;99.90;;;;;;4970589;28;20023;-79
2022/03/15 03:04:48;;;;;;;7.72;1.58;;;5.90;99.90;;;;;;4971354;28;20031;-78
2022/03/15 03:07:15;;;;;;;1.98;1.63;;;5.90;99.90;;;;;;4976963;28;20034;-79
2022/03/15 03:09:40;;;;;;;2.90;1.30;;;6.00;99.90;;;;;;4991873;28;20027;-79
2022/03/15 03:12:06;;;;;;;5.30;1.08;;;5.90;99.90;;;;;;4976804;28;20078;-80
2022/03/15 03:14:34;;;;;;;1.60;1.38;;;5.90;99.90;;;;;;4976490;28;20475;-79
2022/03/15 03:17:00;;;;;;;1.40;1.30;;;5.80;99.90;;;;;;4977194;28;20027;-79
2022/03/15 03:19:26;;;;;;;3.85;1.63;;;5.80;99.90;;;;;;4976922;28;20539;-79
2022/03/15 03:21:52;;;;;;;9.18;1.95;;;5.80;99.90;;;;;;4991779;28;20027;-79
2022/03/15 03:24:21;;;;;;;1.55;1.05;;;5.80;99.90;;;;;;4991564;28;20049;-79
2022/03/15 03:26:47;;;;;;;2.45;1.77;;;5.70;99.90;;;;;;4976754;28;20029;-79
2022/03/15 03:29:13;;;;;;;1.20;1.10;;;5.70;99.90;;;;;;4976468;28;20114;-79
2022/03/15 03:31:43;;;;;;;2.28;1.35;;;5.60;99.90;;;;;;4975150;28;20023;-79
2022/03/15 03:34:11;;;;;;;6.40;1.40;;;5.60;99.90;;;;;;4991377;28;20038;-79
2022/03/15 03:36:38;;;;;;;10.52;1.73;;;5.50;99.90;;;;;;4975349;28;20041;-79
2022/03/15 03:39:05;;;;;;;2.22;1.50;;;5.60;99.90;;;;;;4975102;28;20499;-79
2022/03/15 03:41:31;;;;;;;5.32;1.75;;;5.60;99.90;;;;;;4991340;28;20372;-79
2022/03/15 03:43:57;;;;;;;6.95;1.92;;;5.60;99.90;;;;;;4976195;28;20026;-79
2022/03/15 03:46:23;;;;;;;4.30;1.88;;;3.90;99.90;;;;;;4975063;28;20027;-78
2022/03/15 03:48:50;;;;;;;2.67;1.88;;;5.60;99.90;;;;;;4975098;28;20033;-79
2022/03/15 03:51:20;;;;;;;7.22;1.83;;;5.70;99.90;;;;;;4976613;28;20132;-78
2022/03/15 03:53:45;;;;;;;3.35;2.22;;;5.70;99.90;;;;;;4991426;28;20039;-78
2022/03/15 03:56:11;;;;;;;4.53;1.90;;;5.70;99.90;;;;;;4974985;28;20125;-79
2022/03/15 03:58:37;;;;;;;2.45;2.10;;;5.60;99.90;;;;;;4990856;28;20023;-78
2022/03/15 04:01:03;;;;;;;4.82;2.05;;;5.60;99.90;;;;;;4991275;28;20417;-79
2022/03/15 04:03:31;;;;;;;2.83;1.67;;;5.60;99.90;;;;;;4976363;28;20042;-78
2022/03/15 04:05:57;;;;;;;3.28;2.05;;;5.60;99.90;;;;;;4975010;28;20033;-78
2022/03/15 04:08:24;;;;;;;3.35;1.73;;;5.60;99.90;;;;;;4976332;28;20022;-79
2022/03/15 04:10:50;;;;;;;8.32;2.60;;;5.60;99.90;;;;;;4976387;28;20023;-79
2022/03/15 04:13:18;;;;;;;4.80;2.72;;;5.60;99.90;;;;;;4976008;28;20383;-79
2022/03/15 04:15:51;;;;;;;6.35;1.52;;;5.60;99.90;;;;;;4976205;28;20015;-79
2022/03/15 04:18:17;;;;;;;5.47;2.40;;;5.60;99.90;;;;;;4970704;28;20520;-79
2022/03/15 04:20:42;;;;;;;6.47;1.83;;;5.60;99.90;;;;;;4972959;28;20046;-79
2022/03/15 04:23:10;;;;;;;6.90;2.22;;;5.60;99.90;;;;;;4972976;28;20113;-79
2022/03/15 04:25:36;;;;;;;4.38;2.35;;;5.60;99.90;;;;;;4973429;28;20357;-79
2022/03/15 04:28:01;;;;;;;4.07;2.67;;;5.60;99.90;;;;;;4971605;28;20031;-80
2022/03/15 04:30:28;;;;;;;7.38;2.33;;;5.60;99.90;;;;;;4972933;28;20479;-79
2022/03/15 04:32:54;;;;;;;2.50;2.20;;;5.60;99.90;;;;;;4965767;28;20364;-79
2022/03/15 04:35:19;;;;;;;7.93;2.25;;;5.60;99.90;;;;;;4971944;28;20058;-79
2022/03/15 04:37:45;;;;;;;5.35;2.00;;;5.60;99.90;;;;;;4972602;28;20027;-79
2022/03/15 04:40:12;;;;;;;6.97;2.10;;;5.60;99.90;;;;;;4971261;28;20399;-79
2022/03/15 04:42:38;;;;;;;7.95;2.70;;;5.60;99.90;;;;;;4972226;28;20027;-79
2022/03/15 04:45:05;;;;;;;5.28;2.35;;;5.60;99.90;;;;;;4972807;28;20447;-79
2022/03/15 04:47:31;;;;;;;8.23;3.67;;;5.50;99.90;;;;;;4977294;28;20379;-79
2022/03/15 04:49:56;;;;;;;10.93;3.08;;;5.50;99.90;;;;;;4972343;28;20027;-78
2022/03/15 04:52:22;;;;;;;3.78;2.17;;;5.50;99.90;;;;;;4972393;28;20382;-78
2022/03/15 04:54:48;;;;;;;10.40;2.55;;;5.60;99.90;;;;;;4972243;28;20022;-79
2022/03/15 04:57:14;;;;;;;10.02;3.35;;;5.60;99.90;;;;;;4962510;28;20020;-79
2022/03/15 04:59:39;;;;;;;6.90;2.53;;;5.50;99.90;;;;;;4952767;29;20043;-78
2022/03/15 05:02:05;;;;;;;3.00;2.63;;;5.50;99.90;;;;;;4952917;29;20069;-78
2022/03/15 05:04:31;;;;;;;9.52;2.30;;;5.50;99.90;;;;;;4953132;29;20053;-78
2022/03/15 05:06:56;;;;;;;7.72;2.75;;;5.60;99.90;;;;;;4952641;29;20028;-79
2022/03/15 05:09:22;;;;;;;7.63;3.25;;;5.50;99.90;;;;;;4953139;29;20031;-78
2022/03/15 05:11:48;;;;;;;5.25;2.28;;;5.50;99.90;;;;;;4951396;29;20051;-79
2022/03/15 05:14:13;;;;;;;7.07;2.70;;;5.50;99.90;;;;;;4951131;29;20027;-79
2022/03/15 05:16:39;;;;;;;6.65;2.65;;;5.50;99.90;;;;;;4951027;28;20031;-79
2022/03/15 05:19:05;;;;;;;9.35;2.92;;;5.50;99.90;;;;;;4951238;28;20035;-79
2022/03/15 05:21:31;;;;;;;4.18;2.65;;;5.40;99.90;;;;;;4952265;29;20399;-79
2022/03/15 05:23:57;;;;;;;9.82;3.60;;;5.40;99.90;;;;;;4952640;29;20031;-79
2022/03/15 05:26:24;;;;;;;5.32;2.70;;;5.50;99.90;;;;;;4951264;29;20123;-79
2022/03/15 05:28:51;;;;;;;3.65;2.13;;;5.40;99.90;;;;;;4957701;28;20027;-79
2022/03/15 05:31:19;;;;;;;7.13;2.50;;;5.40;99.90;;;;;;4970306;28;20459;-79
2022/03/15 05:33:44;;;;;;;4.10;2.38;;;5.40;99.90;;;;;;4963990;28;20027;-79
2022/03/15 05:36:10;;;;;;;4.78;2.63;;;5.40;99.90;;;;;;4952609;29;20595;-78
2022/03/15 05:38:36;;;;;;;5.45;2.88;;;7.30;99.90;;;;;;4964953;28;20199;-79
2022/03/15 05:41:02;;;;;;;7.25;2.42;;;5.40;99.90;;;;;;4969937;28;20033;-78
2022/03/15 05:43:28;;;;;;;4.40;2.80;;;5.40;99.90;;;;;;4971141;28;20026;-79
2022/03/15 05:45:53;;;;;;;4.22;2.70;;;5.40;99.90;;;;;;4971340;28;20423;-79
2022/03/15 05:48:19;;;;;;;4.55;2.72;;;5.40;99.90;;;;;;4969888;28;20029;-79
2022/03/15 05:50:45;;;;;;;5.38;2.22;;;5.40;99.90;;;;;;4969900;28;20023;-79
2022/03/15 05:53:11;;;;;;;5.22;2.80;;;5.30;99.90;;;;;;4976501;28;20023;-79
2022/03/15 05:55:37;;;;;;;5.88;2.72;;;5.30;99.90;;;;;;4971249;28;20034;-79
2022/03/15 05:58:03;;;;;;;4.45;2.70;;;5.30;99.90;;;;;;4985514;28;20037;-79
2022/03/15 06:00:32;;;;;;;6.03;2.67;;;5.30;99.90;;;;;;4970867;28;20579;-79
2022/03/15 06:02:58;;;;;;;6.10;3.00;;;5.30;99.90;;;;;;4985948;28;20027;-79
2022/03/15 06:05:24;;;;;;;6.90;3.33;;;5.30;99.90;;;;;;4970921;28;20574;-79
2022/03/15 06:07:52;;;;;;;5.00;2.88;;;5.30;99.90;;;;;;4974545;28;20118;-79
2022/03/15 06:10:22;;;;;;;4.65;3.05;;;5.40;99.90;;;;;;4971036;28;20061;-79
2022/03/15 06:12:50;;;;;;;7.93;3.50;;;5.30;99.90;;;;;;4969528;28;20035;-79
2022/03/15 06:15:17;;;;;;;6.97;3.95;;;5.40;99.90;;;;;;4970206;28;20124;-78
2022/03/15 06:17:57;;;;;;;5.10;3.88;;;5.30;99.90;;;;;;4970699;28;20023;-79
2022/03/15 06:20:25;;;;;;;7.75;4.32;;;5.30;99.90;;;;;;4969381;28;20090;-78
2022/03/15 06:22:51;;;;;;;9.38;5.10;;;5.30;99.90;;;;;;4970314;28;20222;-79
2022/03/15 06:25:17;;;;;;;8.05;4.13;;;5.30;99.90;;;;;;4970967;28;20022;-79
2022/03/15 06:27:43;;;;;;;13.25;6.15;;;5.40;99.90;;;;;;4970569;28;20023;-78
2022/03/15 06:30:11;;;;;;;8.75;5.90;;;5.40;99.90;;;;;;4975063;28;20332;-78
2022/03/15 06:32:37;;;;;;;7.95;5.57;;;5.40;99.90;;;;;;4979386;28;20029;-78
2022/03/15 06:35:07;;;;;;;17.13;5.90;;;5.40;99.90;;;;;;4978594;28;20371;-79
2022/03/15 06:37:36;;;;;;;11.25;5.85;;;6.20;99.90;;;;;;4970733;28;20042;-79
2022/03/15 06:40:02;;;;;;;13.73;6.05;;;5.40;99.90;;;;;;4970408;28;20038;-77
2022/03/15 06:42:28;;;;;;;10.43;5.80;;;5.40;99.90;;;;;;4975945;28;20057;-78
2022/03/15 06:44:54;;;;;;;9.38;5.57;;;5.40;99.90;;;;;;4975314;28;20122;-78
2022/03/15 06:47:20;;;;;;;9.05;5.97;;;5.40;99.90;;;;;;4965966;28;20023;-77
2022/03/15 06:49:46;;;;;;;9.77;6.28;;;5.40;99.90;;;;;;4968224;28;20030;-79
2022/03/15 06:52:12;;;;;;;11.70;5.63;;;5.50;99.90;;;;;;4966701;28;20027;-78
2022/03/15 06:54:38;;;;;;;11.43;5.20;;;5.50;99.90;;;;;;4968869;28;20029;-79
2022/03/15 06:57:04;;;;;;;7.10;5.60;;;5.50;99.90;;;;;;4967429;28;20382;-78
2022/03/15 06:59:30;;;;;;;13.48;6.10;;;5.50;99.90;;;;;;4969498;28;20039;-79
2022/03/15 07:01:56;;;;;;;11.68;5.70;;;5.50;99.90;;;;;;4967257;28;20538;-78
2022/03/15 07:04:21;;;;;;;17.17;6.25;;;5.50;99.90;;;;;;4968827;28;20023;-79
2022/03/15 07:06:47;;;;;;;15.10;6.25;;;5.50;99.90;;;;;;4964589;28;20575;-80
2022/03/15 07:09:13;;;;;;;18.42;6.90;;;5.50;99.90;;;;;;4970017;28;20030;-78
2022/03/15 07:11:38;;;;;;;13.10;5.35;;;5.50;99.90;;;;;;4966852;28;20038;-80
2022/03/15 07:14:05;;;;;;;12.50;4.93;;;5.60;99.90;;;;;;4966022;28;20671;-78
2022/03/15 07:16:31;;;;;;;11.00;5.32;;;5.60;99.90;;;;;;4966247;28;20202;-77
2022/03/15 07:18:57;;;;;;;8.70;4.75;;;5.70;99.90;;;;;;4966051;28;20187;-77
2022/03/15 07:21:23;;;;;;;11.20;5.50;;;5.80;99.90;;;;;;4966397;28;20023;-77
2022/03/15 07:23:48;;;;;;;12.80;5.53;;;5.80;99.90;;;;;;4967563;28;20030;-77
2022/03/15 07:26:14;;;;;;;12.25;5.55;;;5.80;99.90;;;;;;4967899;28;20432;-77
2022/03/15 07:28:40;;;;;;;9.45;5.13;;;5.80;99.90;;;;;;4967006;28;20031;-77
2022/03/15 07:31:05;;;;;;;9.75;5.35;;;5.90;99.90;;;;;;4966067;28;20033;-77
2022/03/15 07:33:32;;;;;;;12.20;5.43;;;6.00;99.90;;;;;;4968123;28;20041;-80
2022/03/15 07:36:01;;;;;;;11.50;4.72;;;6.10;99.90;;;;;;4966539;28;20050;-80
2022/03/15 07:38:27;;;;;;;13.40;4.53;;;6.10;99.90;;;;;;4979121;28;20321;-79
2022/03/15 07:40:54;;;;;;;9.40;4.18;;;6.30;99.90;;;;;;4971172;28;20491;-78
2022/03/15 07:43:23;;;;;;;11.85;4.65;;;6.20;99.90;;;;;;4973260;28;20019;-79
2022/03/15 07:45:49;;;;;;;10.37;3.80;;;6.20;99.90;;;;;;4977981;28;20027;-79
2022/03/15 07:48:19;;;;;;;12.82;4.30;;;6.30;99.90;;;;;;4970712;28;20037;-79
2022/03/15 07:50:44;;;;;;;9.35;4.75;;;6.30;99.90;;;;;;4967308;28;20305;-79
2022/03/15 07:53:10;;;;;;;10.32;4.90;;;6.40;99.90;;;;;;4970610;28;20263;-79
2022/03/15 07:55:36;;;;;;;10.98;4.63;;;6.40;99.90;;;;;;4969009;28;20117;-80
2022/03/15 07:58:03;;;;;;;11.98;4.10;;;6.40;99.90;;;;;;4969719;28;20213;-79
2022/03/15 08:00:30;;;;;;;7.22;3.70;;;6.40;99.90;;;;;;4968856;28;20396;-81
2022/03/15 08:02:56;;;;;;;9.82;3.97;;;6.40;99.90;;;;;;4985765;28;20413;-79
2022/03/15 08:05:22;;;;;;;8.73;4.93;;;6.50;99.90;;;;;;4970332;28;20094;-80
2022/03/15 08:07:49;;;;;;;4.68;3.30;;;6.60;99.90;;;;;;4967837;28;20659;-78
2022/03/15 08:10:14;;;;;;;7.90;3.60;;;7.70;99.90;;;;;;4968056;28;20499;-81
2022/03/15 08:12:41;;;;;;;10.32;4.13;;;6.70;99.90;;;;;;4972887;28;20027;-81
2022/03/15 08:15:08;;;;;;;6.90;3.72;;;6.80;99.90;;;;;;4992842;28;20209;-80
2022/03/15 08:17:35;;;;;;;9.13;3.50;;;6.80;99.90;;;;;;4976045;28;20463;-82
2022/03/15 08:20:01;;;;;;;8.43;3.80;;;6.90;99.90;;;;;;4971602;28;20102;-80
2022/03/15 08:22:30;;;;;;;5.85;3.63;;;7.00;99.90;;;;;;4970237;28;20089;-81
2022/03/15 08:24:56;;;;;;;4.20;3.30;;;7.10;99.90;;;;;;4970876;28;20023;-78
2022/03/15 08:27:22;;;;;;;9.70;3.50;;;7.10;99.90;;;;;;4971774;28;20038;-80
2022/03/15 08:29:48;;;;;;;5.45;3.40;;;7.10;99.90;;;;;;4969200;28;20130;-78
2022/03/15 08:32:14;;;;;;;7.05;3.58;;;7.10;99.90;;;;;;4975872;28;20400;-82
2022/03/15 08:34:40;;;;;;;5.28;3.33;;;7.10;99.90;;;;;;4971807;28;20057;-78
2022/03/15 08:37:06;;;;;;;7.18;3.65;;;7.10;99.90;;;;;;4986179;28;20611;-78
2022/03/15 08:39:32;;;;;;;9.40;4.40;;;7.10;99.90;;;;;;4970668;28;20125;-79
2022/03/15 08:41:58;;;;;;;5.80;4.10;;;7.10;99.90;;;;;;4970254;28;20058;-78
2022/03/15 08:44:23;;;;;;;8.23;4.75;;;7.10;99.90;;;;;;4969910;28;20037;-78
2022/03/15 08:46:50;;;;;;;7.78;3.53;;;7.20;99.90;;;;;;4971067;28;20035;-78
2022/03/15 08:49:17;;;;;;;9.40;4.10;;;7.20;99.90;;;;;;4972216;28;20023;-80
2022/03/15 08:51:44;;;;;;;11.73;5.32;;;7.30;99.90;;;;;;4971123;28;20034;-81
2022/03/15 08:54:10;;;;;;;8.63;3.85;;;7.30;99.90;;;;;;4985833;28;20468;-80
2022/03/15 08:56:40;;;;;;;8.00;3.80;;;7.30;99.90;;;;;;4969510;28;20562;-81
2022/03/15 08:59:06;;;;;;;8.98;3.80;;;7.50;99.90;;;;;;4972634;28;20035;-79
2022/03/15 09:01:32;;;;;;;6.00;3.35;;;7.60;99.90;;;;;;4968471;28;20115;-80
2022/03/15 09:03:58;;;;;;;7.07;3.97;;;7.60;99.90;;;;;;4951774;28;20170;-81
2022/03/15 09:06:23;;;;;;;11.32;4.05;;;7.60;99.90;;;;;;4953633;28;20441;-80
2022/03/15 09:08:49;;;;;;;5.10;3.60;;;7.60;99.90;;;;;;4953630;28;20031;-81
2022/03/15 09:11:15;;;;;;;5.25;4.43;;;7.70;99.90;;;;;;4951909;28;20023;-80
2022/03/15 09:13:42;;;;;;;8.25;5.00;;;7.80;99.90;;;;;;4951682;28;20117;-81
2022/03/15 09:16:08;;;;;;;8.35;4.57;;;7.80;99.90;;;;;;4951304;28;20023;-79
2022/03/15 09:18:34;;;;;;;9.52;4.18;;;7.70;99.90;;;;;;4951071;28;20498;-79
2022/03/15 09:20:59;;;;;;;6.63;3.72;;;7.80;99.90;;;;;;4968759;28;20129;-78
2022/03/15 09:23:25;;;;;;;7.38;4.13;;;7.90;99.90;;;;;;4967858;28;20054;-79
2022/03/15 09:25:51;;;;;;;6.88;4.57;;;8.00;99.90;;;;;;4967033;28;20113;-78
2022/03/15 09:28:17;;;;;;;7.03;3.70;;;8.00;99.90;;;;;;4967359;28;20360;-78
2022/03/15 09:30:45;;;;;;;7.30;3.83;;;8.10;99.90;;;;;;4967492;28;20344;-78
2022/03/15 09:33:10;;;;;;;7.40;3.92;;;8.20;99.90;;;;;;4966232;28;20033;-78
2022/03/15 09:35:36;;;;;;;6.45;4.05;;;8.30;99.90;;;;;;4967408;28;20046;-79
2022/03/15 09:38:02;;;;;;;8.27;4.65;;;8.10;99.90;;;;;;4966307;28;20129;-78
2022/03/15 09:40:30;;;;;;;5.80;4.05;;;8.00;99.90;;;;;;4966303;28;20043;-80
2022/03/15 09:43:01;;;;;;;5.97;4.05;;;8.00;99.90;;;;;;4965843;28;20106;-79
2022/03/15 09:45:35;;;;;;;13.07;4.93;;;8.10;99.90;;;;;;4966670;28;20062;-78
2022/03/15 09:48:11;;;;;;;8.13;4.38;;;8.00;99.90;;;;;;4968144;28;20027;-78
2022/03/15 09:50:40;;;;;;;6.45;4.55;;;8.10;99.90;;;;;;4967705;28;20151;-79
2022/03/15 09:53:05;;;;;;;9.57;5.67;;;8.20;99.90;;;;;;4961524;28;20031;-79
2022/03/15 09:55:31;;;;;;;6.97;3.95;;;8.30;99.90;;;;;;4956719;28;20042;-78
2022/03/15 09:57:57;;;;;;;9.43;4.95;;;8.50;99.90;;;;;;4968816;28;20514;-77
2022/03/15 10:00:24;;;;;;;7.97;4.50;;;8.70;99.90;;;;;;4960214;28;20602;-78
2022/03/15 10:02:50;;;;;;;5.00;4.15;;;8.90;99.90;;;;;;4952927;28;20495;-79
2022/03/15 10:05:16;;;;;;;6.97;3.53;;;8.90;99.90;;;;;;4968450;28;20034;-79
2022/03/15 10:07:41;;;;;;;6.35;4.18;;;8.90;99.90;;;;;;4962954;28;20093;-79
2022/03/15 10:10:14;;;;;;;6.13;4.28;;;9.00;99.90;;;;;;4949171;28;20038;-79
2022/03/15 10:12:39;;;;;;;5.50;4.22;;;9.10;99.90;;;;;;4950042;28;20067;-78
2022/03/15 10:15:22;;;;;;;8.77;4.60;;;9.20;99.90;;;;;;4948276;28;20062;-77
2022/03/15 10:17:55;;;;;;;7.15;5.28;;;9.10;99.90;;;;;;4968562;28;20027;-78
2022/03/15 10:20:28;;;;;;;6.88;4.68;;;9.10;99.90;;;;;;4966803;28;20046;-78
2022/03/15 10:22:59;;;;;;;7.15;4.93;;;9.20;99.90;;;;;;4948687;29;20411;-78
2022/03/15 10:25:27;;;;;;;8.25;4.70;;;8.90;99.90;;;;;;4961655;28;20141;-78
2022/03/15 10:28:01;;;;;;;7.28;4.70;;;8.80;99.90;;;;;;4982621;28;20113;-78
2022/03/15 10:30:28;;;;;;;8.13;4.22;;;9.00;99.90;;;;;;4968433;28;20053;-78
2022/03/15 10:32:56;;;;;;;5.78;4.07;;;9.00;99.90;;;;;;4965962;28;20113;-78
2022/03/15 10:35:28;;;;;;;7.95;4.90;;;9.10;99.90;;;;;;4967488;28;20495;-78
2022/03/15 10:37:55;;;;;;;9.20;5.15;;;9.10;99.90;;;;;;4967726;28;20138;-78
2022/03/15 10:40:40;;;;;;;6.93;4.68;;;8.90;99.90;;;;;;4964836;28;20084;-78
2022/03/15 10:43:14;;;;;;;7.20;4.30;;;8.90;99.90;;;;;;4965643;28;20049;-79
2022/03/15 10:45:46;;;;;;;8.20;4.68;;;8.90;99.90;;;;;;4980852;28;20389;-78
2022/03/15 10:48:23;;;;;;;12.02;4.95;;;8.90;99.90;;;;;;4965850;28;20073;-78
2022/03/15 10:51:05;;;;;;;9.90;4.65;;;8.70;99.90;;;;;;4964522;28;20447;-78
2022/03/15 10:53:45;;;;;;;7.60;4.30;;;8.80;99.90;;;;;;4981088;28;20137;-78
2022/03/15 10:56:25;;;;;;;8.15;4.78;;;8.70;99.90;;;;;;4966435;28;20061;-78
2022/03/15 10:59:02;;;;;;;5.70;4.15;;;8.60;99.90;;;;;;4966831;28;20400;-79
2022/03/15 11:01:41;;;;;;;7.50;5.63;;;8.60;99.90;;;;;;4967554;28;20031;-77
2022/03/15 11:04:09;;;;;;;6.38;4.30;;;8.50;99.90;;;;;;4967421;28;20035;-78
2022/03/15 11:06:40;;;;;;;7.40;4.45;;;8.40;99.90;;;;;;4968537;28;20027;-78
2022/03/15 11:09:25;;;;;;;6.15;4.43;;;8.60;99.90;;;;;;4967678;28;20033;-78
2022/03/15 11:12:04;;;;;;;5.72;4.53;;;8.80;99.90;;;;;;4967186;28;20473;-77
2022/03/15 11:14:33;;;;;;;6.40;4.40;;;9.10;99.90;;;;;;4966117;28;20658;-79
2022/03/15 11:17:01;;;;;;;9.20;4.47;;;9.20;99.90;;;;;;4967715;28;20031;-80
2022/03/15 11:19:29;;;;;;;9.00;5.00;;;9.30;99.90;;;;;;4983227;28;20039;-78
2022/03/15 11:21:57;;;;;;;6.80;4.40;;;9.30;99.90;;;;;;4982320;28;20027;-79
2022/03/15 11:24:25;;;;;;;7.78;4.97;;;9.20;99.90;;;;;;4967368;28;20031;-79
2022/03/15 11:26:52;;;;;;;9.18;4.90;;;9.40;99.90;;;;;;4970127;28;20357;-79
2022/03/15 11:29:22;;;;;;;8.23;4.43;;;9.60;99.90;;;;;;4971628;28;20117;-79
2022/03/15 11:31:49;;;;;;;6.35;4.18;;;9.60;99.90;;;;;;4970863;28;20030;-80
2022/03/15 11:34:18;;;;;;;6.50;3.92;;;9.40;99.90;;;;;;4986066;28;20042;-79
2022/03/15 11:36:45;;;;;;;7.40;3.97;;;9.40;99.90;;;;;;4986203;28;20298;-78
2022/03/15 11:39:10;;;;;;;8.23;5.18;;;9.20;99.90;;;;;;4971100;28;20039;-79
2022/03/15 11:41:37;;;;;;;7.88;4.13;;;8.80;99.90;;;;;;4967910;28;20042;-79
2022/03/15 11:44:16;;;;;;;9.18;4.32;;;7.80;99.90;;;;;;4970558;28;20038;-78
2022/03/15 11:47:18;;;;;;;8.85;4.35;;;9.30;99.90;;;;;;4969054;28;20207;-78
2022/03/15 11:49:47;;;;;;;5.63;4.20;;;9.20;99.90;;;;;;4950133;28;20038;-80
2022/03/15 11:52:43;;;;;;;5.68;4.15;;;9.20;99.90;;;;;;4969306;28;20024;-79
2022/03/15 11:55:30;;;;;;;6.47;4.05;;;9.40;99.90;;;;;;4951820;28;20031;-79
2022/03/15 11:58:03;;;;;;;7.68;4.47;;;9.50;99.90;;;;;;4966230;28;20027;-79
2022/03/15 12:00:46;;;;;;;7.35;4.32;;;9.50;99.90;;;;;;4950390;29;20046;-78
2022/03/15 12:03:18;;;;;;;8.75;3.90;;;9.30;99.90;;;;;;4952062;28;20046;-79
2022/03/15 12:05:57;;;;;;;6.50;4.38;;;9.30;99.90;;;;;;4949926;29;20035;-79
2022/03/15 12:08:24;;;;;;;7.65;4.05;;;9.30;99.90;;;;;;4950711;28;20027;-79
2022/03/15 12:10:53;;;;;;;5.57;3.70;;;8.60;99.90;;;;;;4966787;28;20074;-78
2022/03/15 12:13:20;;;;;;;7.18;4.60;;;9.20;99.90;;;;;;4950474;28;20031;-77
2022/03/15 12:15:50;;;;;;;10.82;4.30;;;9.20;99.90;;;;;;4950962;28;20059;-77
2022/03/15 12:21:02;;;;;;;5.10;3.55;;;9.20;99.90;;;;;;4950898;28;20035;-77
2022/03/15 12:23:37;;;;;;;5.45;3.70;;;9.30;99.90;;;;;;4950776;28;20030;-78
2022/03/15 12:26:03;;;;;;;14.02;4.57;;;9.20;99.90;;;;;;4949564;28;20042;-78
2022/03/15 12:28:31;;;;;;;12.93;3.50;;;9.30;99.90;;;;;;4950586;28;20393;-77
2022/03/15 12:31:08;;;;;;;23.02;5.40;;;9.30;99.90;;;;;;4966042;28;20028;-78
2022/03/15 12:33:36;;;;;;;8.52;4.10;;;9.30;99.90;;;;;;4950598;28;20031;-78
2022/03/15 12:36:07;;;;;;;5.40;3.67;;;9.40;99.90;;;;;;4950640;28;20145;-77
2022/03/15 12:38:39;;;;;;;7.88;4.25;;;9.70;99.90;;;;;;4949782;28;20039;-77
2022/03/15 12:41:06;;;;;;;7.40;4.05;;;9.80;99.90;;;;;;4965051;28;20113;-77
2022/03/15 12:43:33;;;;;;;10.52;3.60;;;9.80;99.90;;;;;;4966625;28;20106;-77
2022/03/15 12:46:08;;;;;;;4.95;3.35;;;9.70;99.90;;;;;;4970362;28;20034;-77
2022/03/15 12:48:36;;;;;;;6.65;4.00;;;9.80;99.90;;;;;;4969797;28;20026;-77
2022/03/15 12:51:03;;;;;;;8.63;3.95;;;10.00;99.90;;;;;;4969781;28;20019;-78
2022/03/15 12:53:42;;;;;;;7.70;3.50;;;10.10;99.90;;;;;;4970143;28;20023;-78
2022/03/15 12:56:11;;;;;;;7.70;3.90;;;10.00;99.90;;;;;;4965737;28;20027;-77
2022/03/15 12:58:41;;;;;;;5.38;3.10;;;10.20;99.90;;;;;;4950415;29;20028;-77
2022/03/15 13:01:08;;;;;;;;;;;10.40;99.90;;;;;;4950318;29;20485;-77